Time;durP1;ratioP1;P1;durP2;ratioP2;P2;SDS_P1;SDS_P2;PMS_P1;PMS_P2;Temp;Humidity;BMP_temperature;BMP_pressure;BME280_temperature;BME280_humidity;BME280_pressure;Samples;Min_cycle;Max_cycle;Signal;HPM_P1;HPM_P2
2022/07/22 00:02:08;;;;;;;4.50;1.00;;;;;;;17.58;70.20;102317.00;4996401;28;96588;-35
2022/07/22 00:04:34;;;;;;;1.15;0.70;;;;;;;17.54;70.25;102309.09;4996193;28;96853;-35
2022/07/22 00:06:59;;;;;;;6.40;0.90;;;;;;;17.54;70.63;102310.00;4995742;28;97877;-35
2022/07/22 00:09:25;;;;;;;2.25;0.77;;;;;;;17.56;70.62;102312.63;4996161;28;97864;-35
2022/07/22 00:11:50;;;;;;;1.85;0.57;;;;;;;17.54;70.61;102310.00;4994927;28;96487;-35
2022/07/22 00:14:19;;;;;;;4.13;0.80;;;;;;;17.51;70.54;102298.34;4996167;28;96718;-35
2022/07/22 00:16:44;;;;;;;2.25;0.82;;;;;;;17.56;70.52;102297.03;4995518;28;116803;-35
2022/07/22 00:19:10;;;;;;;2.58;0.60;;;;;;;17.51;70.60;102295.63;4995603;28;97415;-35
2022/07/22 00:21:35;;;;;;;2.50;0.80;;;;;;;17.54;70.15;102292.66;4994756;28;96525;-35
2022/07/22 00:24:01;;;;;;;3.05;0.73;;;;;;;17.56;70.53;102291.56;4996536;28;96730;-34
2022/07/22 00:26:26;;;;;;;1.65;0.60;;;;;;;17.55;70.28;102288.94;4995847;28;97350;-35
2022/07/22 00:28:51;;;;;;;1.23;0.70;;;;;;;17.54;70.13;102281.69;4995675;28;99736;-35
2022/07/22 00:31:17;;;;;;;4.00;1.00;;;;;;;17.56;70.46;102293.44;4995734;28;96407;-35
2022/07/22 00:33:42;;;;;;;2.08;0.93;;;;;;;17.54;70.35;102293.56;4995537;28;96797;-35
2022/07/22 00:36:08;;;;;;;2.33;0.95;;;;;;;17.53;70.64;102290.91;4995465;28;104239;-35
2022/07/22 00:38:34;;;;;;;3.83;0.93;;;;;;;17.50;70.05;102291.13;4995621;28;97841;-35
2022/07/22 00:40:59;;;;;;;3.45;0.77;;;;;;;17.51;70.15;102277.31;4994102;28;96922;-35
2022/07/22 00:43:24;;;;;;;1.70;0.70;;;;;;;17.47;70.53;102269.41;4995958;28;96842;-35
2022/07/22 00:45:50;;;;;;;1.95;0.88;;;;;;;17.49;70.46;102281.13;4993857;28;107953;-35
2022/07/22 00:48:15;;;;;;;1.25;0.75;;;;;;;17.48;70.29;102287.59;4994368;28;99278;-35
2022/07/22 00:50:40;;;;;;;1.25;0.82;;;;;;;17.38;70.52;102266.31;4995797;28;96831;-34
2022/07/22 00:53:06;;;;;;;4.55;0.57;;;;;;;17.41;70.68;102281.66;4995664;28;96784;-35
2022/07/22 00:55:34;;;;;;;1.15;0.70;;;;;;;17.45;70.34;102272.25;4993346;28;101295;-35
2022/07/22 00:58:00;;;;;;;1.83;0.85;;;;;;;17.44;70.76;102280.56;4993425;28;100733;-35
2022/07/22 01:00:25;;;;;;;3.33;1.30;;;;;;;17.38;70.96;102262.69;4995221;28;96534;-35
2022/07/22 01:02:51;;;;;;;1.45;0.82;;;;;;;17.42;70.49;102277.94;4995676;28;96844;-35
2022/07/22 01:05:17;;;;;;;4.07;0.90;;;;;;;17.39;70.63;102273.53;4994996;28;97974;-35
2022/07/22 01:07:43;;;;;;;4.70;0.88;;;;;;;17.37;70.55;102269.16;4993599;28;101019;-35
2022/07/22 01:10:08;;;;;;;3.58;0.90;;;;;;;17.38;71.08;102284.63;4995556;28;96613;-35
2022/07/22 01:12:34;;;;;;;1.88;0.70;;;;;;;17.32;70.87;102269.44;4995563;28;96894;-35
2022/07/22 01:14:59;;;;;;;1.90;0.85;;;;;;;17.36;70.82;102273.75;4994815;28;99261;-35
2022/07/22 01:17:24;;;;;;;2.28;0.90;;;;;;;17.31;70.98;102262.22;4994834;28;99086;-35
2022/07/22 01:19:50;;;;;;;2.35;0.60;;;;;;;17.40;70.94;102274.44;4994925;28;96563;-35
2022/07/22 01:22:16;;;;;;;1.50;0.80;;;;;;;17.37;71.14;102264.53;4995324;28;96807;-35
2022/07/22 01:24:41;;;;;;;1.85;1.00;;;;;;;17.40;71.17;102269.84;4994969;28;97822;-35
2022/07/22 01:27:06;;;;;;;2.22;0.90;;;;;;;17.35;71.04;102261.06;4994913;28;97493;-34
2022/07/22 01:29:32;;;;;;;2.97;0.80;;;;;;;17.39;71.04;102275.41;4995065;28;96529;-35
2022/07/22 01:31:57;;;;;;;1.52;0.77;;;;;;;17.38;70.88;102280.00;4995238;28;96973;-35
2022/07/22 01:34:23;;;;;;;4.82;0.88;;;;;;;17.31;71.08;102272.31;4994667;28;99324;-35
2022/07/22 01:36:48;;;;;;;1.00;0.68;;;;;;;17.25;71.62;102259.91;4995217;28;97845;-35
2022/07/22 01:39:14;;;;;;;1.25;0.50;;;;;;;17.31;71.00;102270.44;4994431;28;96806;-35
2022/07/22 01:41:40;;;;;;;2.75;1.13;;;;;;;17.26;71.42;102267.16;4994995;28;96817;-35
2022/07/22 01:44:05;;;;;;;1.15;0.63;;;;;;;17.30;71.81;102273.28;4994153;28;98114;-35
2022/07/22 01:46:31;;;;;;;1.23;0.63;;;;;;;17.24;71.60;102271.84;4994683;28;100596;-35
2022/07/22 01:48:56;;;;;;;2.00;0.73;;;;;;;17.27;71.23;102266.16;4994865;28;96588;-35
2022/07/22 01:51:22;;;;;;;0.80;0.65;;;;;;;17.28;71.21;102258.81;4994869;28;96804;-35
2022/07/22 01:53:47;;;;;;;1.10;0.60;;;;;;;17.28;71.20;102262.44;4994125;28;99235;-35
2022/07/22 01:56:13;;;;;;;6.18;0.80;;;;;;;17.34;71.07;102266.63;4993956;28;97784;-35
2022/07/22 01:58:38;;;;;;;2.17;0.75;;;;;;;17.36;70.89;102261.94;4994383;28;96580;-35
2022/07/22 02:01:04;;;;;;;6.72;0.93;;;;;;;17.30;71.13;102260.47;4994802;28;96753;-35
2022/07/22 02:03:29;;;;;;;4.05;1.13;;;;;;;17.32;71.62;102263.97;4994196;28;99345;-35
2022/07/22 02:05:55;;;;;;;3.25;0.73;;;;;;;17.20;71.26;102251.13;4994065;28;99068;-35
2022/07/22 02:08:20;;;;;;;2.92;0.65;;;;;;;17.23;71.72;102250.03;4992714;28;96520;-35
2022/07/22 02:10:46;;;;;;;2.85;0.80;;;;;;;17.27;71.38;102257.94;4994834;28;96791;-35
2022/07/22 02:13:11;;;;;;;1.27;0.70;;;;;;;17.30;71.53;102256.84;4994218;28;97882;-35
2022/07/22 02:15:36;;;;;;;2.10;0.88;;;;;;;17.26;71.35;102250.72;4994144;28;97687;-35
2022/07/22 02:18:17;;;;;;;2.40;0.70;;;;;;;17.34;71.50;102255.66;4994709;28;96628;-35
2022/07/22 02:20:44;;;;;;;2.65;0.73;;;;;;;17.24;71.04;102238.09;4994671;28;96514;-35
2022/07/22 02:23:11;;;;;;;5.70;1.15;;;;;;;17.33;71.33;102252.06;4992694;28;101254;-35
2022/07/22 02:25:37;;;;;;;2.75;1.10;;;;;;;17.31;71.26;102251.28;4994410;28;99134;-35
2022/07/22 02:28:02;;;;;;;1.38;0.50;;;;;;;17.30;71.63;102245.91;4994468;28;96612;-35
2022/07/22 02:30:28;;;;;;;3.33;1.00;;;;;;;17.27;71.22;102244.25;4994284;28;96796;-35
2022/07/22 02:32:54;;;;;;;1.33;0.75;;;;;;;17.32;71.22;102250.28;4993577;28;98140;-35
2022/07/22 02:35:19;;;;;;;1.90;0.80;;;;;;;17.30;70.92;102234.94;4994264;28;96512;-35
2022/07/22 02:37:44;;;;;;;2.63;0.63;;;;;;;17.37;70.70;102248.09;4993295;28;96549;-35
2022/07/22 02:40:10;;;;;;;1.50;0.80;;;;;;;17.33;70.63;102237.50;4993880;28;96904;-35
2022/07/22 02:42:35;;;;;;;3.53;0.60;;;;;;;17.36;71.07;102248.22;4993997;28;98002;-35
2022/07/22 02:45:01;;;;;;;2.25;0.80;;;;;;;17.32;70.75;102241.19;4993900;28;97405;-35
2022/07/22 02:47:27;;;;;;;2.75;0.90;;;;;;;17.37;70.59;102241.75;4994193;28;96573;-35
2022/07/22 02:49:52;;;;;;;1.25;0.68;;;;;;;17.31;70.65;102240.31;4994699;28;96806;-34
2022/07/22 02:52:18;;;;;;;1.88;0.73;;;;;;;17.36;70.55;102238.16;4993699;28;98537;-35
2022/07/22 02:54:43;;;;;;;0.73;0.55;;;;;;;17.30;70.46;102230.34;4993952;28;97762;-35
2022/07/22 02:57:09;;;;;;;2.00;0.75;;;;;;;17.24;70.31;102216.19;4993293;28;96728;-35
2022/07/22 02:59:34;;;;;;;2.75;0.80;;;;;;;17.30;70.73;102230.34;4993815;28;96778;-35
2022/07/22 03:01:59;;;;;;;1.80;0.70;;;;;;;17.23;70.16;102220.78;4993495;28;99289;-35
2022/07/22 03:04:25;;;;;;;3.30;0.65;;;;;;;17.27;70.37;102224.19;4993484;28;97868;-35
2022/07/22 03:06:50;;;;;;;1.25;0.63;;;;;;;17.27;69.88;102222.34;4993858;28;96475;-35
2022/07/22 03:09:15;;;;;;;1.00;0.50;;;;;;;17.22;69.76;102229.13;4996270;28;96830;-35
2022/07/22 03:11:40;;;;;;;1.10;0.47;;;;;;;17.26;70.44;102236.16;4997159;28;97449;-35
2022/07/22 03:14:07;;;;;;;1.55;0.60;;;;;;;17.23;70.27;102229.00;4996617;28;106934;-35
2022/07/22 03:16:32;;;;;;;1.25;0.57;;;;;;;17.23;70.25;102228.13;4995685;28;96638;-35
2022/07/22 03:18:57;;;;;;;2.03;0.80;;;;;;;17.18;70.20;102232.06;4997456;28;96832;-35
2022/07/22 03:21:23;;;;;;;2.28;0.60;;;;;;;17.17;70.06;102233.03;4996195;28;99599;-35
2022/07/22 03:23:53;;;;;;;2.13;0.50;;;;;;;17.18;70.13;102243.03;4996760;28;97309;-35
2022/07/22 03:26:19;;;;;;;3.08;0.88;;;;;;;17.11;70.24;102233.47;4997309;28;96473;-35
2022/07/22 03:28:44;;;;;;;3.40;0.90;;;;;;;17.07;70.37;102229.16;4995289;28;96912;-35
2022/07/22 03:31:10;;;;;;;3.85;0.88;;;;;;;17.04;70.40;102225.75;4996427;28;104007;-35
2022/07/22 03:33:35;;;;;;;1.33;0.68;;;;;;;17.06;70.52;102240.22;4996332;28;105421;-35
2022/07/22 03:36:09;;;;;;;0.70;0.50;;;;;;;17.01;70.80;102245.13;4996698;28;96548;-35
2022/07/22 03:38:35;;;;;;;0.80;0.55;;;;;;;16.97;71.34;102248.06;4997226;28;96913;-35
2022/07/22 03:41:00;;;;;;;1.00;0.50;;;;;;;16.91;71.36;102239.38;4986426;28;98808;-35
2022/07/22 03:43:30;;;;;;;1.55;0.63;;;;;;;16.93;71.83;102242.91;4996390;28;99313;-35
2022/07/22 03:45:55;;;;;;;0.52;0.40;;;;;;;16.88;71.75;102239.59;4996209;28;96497;-35
2022/07/22 03:48:20;;;;;;;1.20;0.70;;;;;;;16.91;71.56;102242.13;4996690;28;96890;-35
2022/07/22 03:50:46;;;;;;;2.22;0.80;;;;;;;16.92;71.37;102246.59;4996507;28;97954;-35
2022/07/22 03:53:11;;;;;;;1.15;0.70;;;;;;;16.85;71.82;102243.41;4996218;28;97778;-35
2022/07/22 03:55:37;;;;;;;3.70;0.60;;;;;;;16.86;71.81;102247.88;4996371;28;96636;-35
2022/07/22 03:58:02;;;;;;;4.05;1.20;;;;;;;16.82;71.46;102248.19;4996616;28;96810;-35
2022/07/22 04:00:28;;;;;;;1.85;0.70;;;;;;;16.83;71.85;102249.94;4996689;28;97409;-35
2022/07/22 04:02:53;;;;;;;0.63;0.57;;;;;;;16.86;71.63;102249.75;4996451;28;98584;-35
2022/07/22 04:05:18;;;;;;;2.22;0.85;;;;;;;16.84;71.58;102258.06;4996269;28;96566;-35
2022/07/22 04:07:44;;;;;;;1.67;0.80;;;;;;;16.83;71.89;102249.94;4996470;28;96434;-35
2022/07/22 04:10:09;;;;;;;1.27;0.70;;;;;;;16.80;71.73;102244.66;4995958;28;97445;-35
2022/07/22 04:12:37;;;;;;;3.88;0.85;;;;;;;16.78;71.49;102239.28;4995626;28;98897;-35
2022/07/22 04:15:03;;;;;;;2.03;0.68;;;;;;;16.87;71.48;102246.91;4994841;28;96556;-35
2022/07/22 04:17:29;;;;;;;1.58;0.60;;;;;;;16.86;71.70;102247.88;4994909;28;96910;-35
2022/07/22 04:19:55;;;;;;;0.35;0.32;;;;;;;16.87;71.75;102244.16;4995536;28;97231;-35
2022/07/22 04:22:20;;;;;;;1.77;0.75;;;;;;;16.84;71.76;102240.75;4994353;28;100921;-35
2022/07/22 04:24:45;;;;;;;2.35;0.88;;;;;;;16.87;71.56;102246.03;4995368;28;107858;-35
2022/07/22 04:27:11;;;;;;;2.60;0.75;;;;;;;16.87;72.10;102243.28;4996406;28;96788;-35
2022/07/22 04:29:36;;;;;;;3.92;0.93;;;;;;;16.86;71.98;102247.88;4995731;28;97433;-35
2022/07/22 04:32:01;;;;;;;4.28;0.77;;;;;;;16.88;72.16;102240.47;4995510;28;99080;-35
2022/07/22 04:34:27;;;;;;;1.90;0.85;;;;;;;16.85;71.91;102240.66;4993933;28;96559;-35
2022/07/22 04:36:52;;;;;;;3.30;1.00;;;;;;;16.86;72.03;102228.72;4995378;28;109352;-35
2022/07/22 04:39:17;;;;;;;1.75;0.88;;;;;;;16.89;71.76;102236.72;4995590;28;97483;-35
2022/07/22 04:41:43;;;;;;;1.45;0.70;;;;;;;16.90;71.94;102234.88;4995230;28;97901;-35
2022/07/22 04:44:08;;;;;;;3.50;0.50;;;;;;;16.94;71.93;102239.16;4996238;28;96435;-35
2022/07/22 04:46:34;;;;;;;1.33;0.73;;;;;;;16.90;72.45;102223.91;4995627;28;96934;-35
2022/07/22 04:48:59;;;;;;;2.50;0.88;;;;;;;16.96;71.99;102235.34;4995579;28;97873;-35
2022/07/22 04:51:25;;;;;;;1.17;0.57;;;;;;;16.94;72.10;102229.09;4995842;28;97763;-35
2022/07/22 04:53:50;;;;;;;0.93;0.70;;;;;;;16.98;71.42;102224.31;4995409;28;96446;-35
2022/07/22 04:56:15;;;;;;;1.08;0.57;;;;;;;17.04;72.26;102228.47;4995249;28;96752;-35
2022/07/22 04:58:41;;;;;;;4.70;1.10;;;;;;;17.04;71.77;102223.91;4994653;28;98667;-35
2022/07/22 05:01:06;;;;;;;0.75;0.43;;;;;;;17.04;71.90;102226.66;4995106;28;102541;-35
2022/07/22 05:03:31;;;;;;;1.05;0.50;;;;;;;17.06;72.32;102232.00;4995423;28;96919;-35
2022/07/22 05:05:56;;;;;;;3.55;0.65;;;;;;;17.09;72.15;102232.69;4994727;28;105579;-35
2022/07/22 05:08:22;;;;;;;2.97;0.85;;;;;;;17.12;71.90;102234.34;4994867;28;99407;-35
2022/07/22 05:10:47;;;;;;;2.97;1.08;;;;;;;17.12;72.16;102237.94;4994902;28;104460;-35
2022/07/22 05:13:13;;;;;;;0.47;0.35;;;;;;;17.17;73.20;102235.78;4995329;28;96618;-35
2022/07/22 05:15:38;;;;;;;1.20;0.65;;;;;;;17.22;71.73;102229.97;4994202;28;96842;-35
2022/07/22 05:18:04;;;;;;;3.22;1.02;;;;;;;17.27;71.44;102235.16;4994504;28;115866;-35
2022/07/22 05:20:29;;;;;;;4.25;1.05;;;;;;;17.30;71.71;102229.47;4993514;28;99273;-35
2022/07/22 05:22:55;;;;;;;1.25;0.70;;;;;;;17.33;71.07;102230.16;4994632;28;96503;-35
2022/07/22 05:25:20;;;;;;;1.55;0.55;;;;;;;17.34;71.17;102220.94;4994605;28;100465;-35
2022/07/22 05:27:53;;;;;;;2.78;1.08;;;;;;;17.37;70.89;102225.31;4995006;28;98392;-35
2022/07/22 05:30:19;;;;;;;1.90;0.77;;;;;;;17.43;70.74;102230.38;4992810;28;100854;-35
2022/07/22 05:32:45;;;;;;;1.98;0.65;;;;;;;17.37;70.72;102226.19;4993296;28;96565;-35
2022/07/22 05:35:10;;;;;;;3.72;0.77;;;;;;;17.45;70.29;102224.78;4995105;28;96775;-35
2022/07/22 05:37:35;;;;;;;2.05;0.70;;;;;;;17.51;70.10;102232.59;4994574;28;99206;-35
2022/07/22 05:40:05;;;;;;;3.80;1.58;;;;;;;17.49;70.51;102229.09;4994307;28;99209;-34
2022/07/22 05:42:30;;;;;;;1.13;0.60;;;;;;;17.51;70.57;102228.00;4993524;28;96692;-35
2022/07/22 05:44:56;;;;;;;1.60;0.63;;;;;;;17.56;70.17;102235.91;4994719;28;96853;-35
2022/07/22 05:47:21;;;;;;;1.77;0.60;;;;;;;17.61;70.20;102233.72;4994333;28;97943;-35
2022/07/22 05:49:46;;;;;;;1.70;0.80;;;;;;;17.56;69.74;102213.97;4994517;28;99756;-35
2022/07/22 05:52:12;;;;;;;2.10;0.90;;;;;;;17.61;70.05;102214.53;4994525;28;96627;-35
2022/07/22 05:54:37;;;;;;;2.50;1.00;;;;;;;17.72;69.47;102238.47;4994632;28;96794;-35
2022/07/22 05:57:02;;;;;;;1.00;0.63;;;;;;;17.73;68.94;102223.75;4994314;28;100331;-35
2022/07/22 05:59:28;;;;;;;3.10;0.85;;;;;;;17.79;68.69;102231.56;4994422;28;97686;-35
2022/07/22 06:01:53;;;;;;;1.40;0.70;;;;;;;17.77;68.96;102215.22;4994547;28;96579;-35
2022/07/22 06:04:20;;;;;;;4.05;0.77;;;;;;;17.85;69.06;102222.94;4994563;28;96832;-35
2022/07/22 06:06:45;;;;;;;7.20;1.65;;;;;;;17.79;68.29;102218.72;4994005;28;99425;-35
2022/07/22 06:09:11;;;;;;;1.85;0.50;;;;;;;17.82;68.14;102224.03;4994250;28;100587;-35
2022/07/22 06:11:36;;;;;;;4.13;0.75;;;;;;;17.87;67.86;102222.81;4994296;28;96664;-35
2022/07/22 06:14:01;;;;;;;3.10;0.70;;;;;;;17.88;68.07;102221.88;4994622;28;96891;-35
2022/07/22 06:16:27;;;;;;;1.58;0.70;;;;;;;17.93;68.09;102217.78;4993911;28;106019;-35
2022/07/22 06:18:52;;;;;;;1.08;0.60;;;;;;;17.93;67.75;102216.94;4993805;28;114376;-35
2022/07/22 06:21:17;;;;;;;1.27;0.65;;;;;;;18.01;67.64;102220.84;4994112;28;98411;-35
2022/07/22 06:23:42;;;;;;;4.10;0.93;;;;;;;18.04;67.67;102217.03;4994522;28;96817;-35
2022/07/22 06:26:08;;;;;;;0.98;0.52;;;;;;;18.08;67.65;102221.31;4993745;28;98721;-35
2022/07/22 06:28:33;;;;;;;1.95;1.00;;;;;;;18.16;67.49;102227.13;4992976;28;98811;-35
2022/07/22 06:30:58;;;;;;;3.17;0.88;;;;;;;18.16;67.10;102221.66;4993249;28;96548;-35
2022/07/22 06:33:24;;;;;;;2.45;0.60;;;;;;;18.13;67.23;102221.84;4994316;28;96793;-35
2022/07/22 06:35:49;;;;;;;2.70;0.47;;;;;;;18.15;66.76;102229.97;4993440;28;109750;-35
2022/07/22 06:38:14;;;;;;;2.22;1.00;;;;;;;18.25;67.06;102239.28;4993687;28;99120;-35
2022/07/22 06:40:40;;;;;;;1.88;0.85;;;;;;;18.22;67.08;102234.91;4993981;28;96718;-35
2022/07/22 06:43:05;;;;;;;1.77;0.60;;;;;;;18.28;66.83;102243.69;4996436;28;96769;-35
2022/07/22 06:45:31;;;;;;;1.85;1.15;;;;;;;18.27;66.27;102241.94;4997244;28;101408;-35
2022/07/22 06:47:57;;;;;;;3.25;1.15;;;;;;;18.25;66.55;102229.19;4995888;28;101069;-35
2022/07/22 06:50:23;;;;;;;1.45;0.85;;;;;;;18.30;66.19;102233.47;4996175;28;96706;-35
2022/07/22 06:52:48;;;;;;;2.83;1.00;;;;;;;18.29;66.32;102239.97;4997683;28;96844;-35
2022/07/22 06:55:14;;;;;;;2.90;0.60;;;;;;;18.29;66.30;102238.09;4996895;28;99328;-35
2022/07/22 06:57:39;;;;;;;0.68;0.50;;;;;;;18.30;66.49;102236.22;4996997;28;97860;-35
2022/07/22 07:00:09;;;;;;;3.45;0.82;;;;;;;18.33;66.54;102239.63;4996474;28;97146;-35
2022/07/22 07:02:35;;;;;;;1.23;0.70;;;;;;;18.35;65.81;102243.16;4995172;28;96646;-34
2022/07/22 07:05:00;;;;;;;1.98;0.57;;;;;;;18.30;66.32;102230.72;4975445;28;100822;-35
2022/07/22 07:07:26;;;;;;;3.80;0.50;;;;;;;18.31;65.86;102240.75;4977267;28;97429;-35
2022/07/22 07:09:53;;;;;;;1.30;0.60;;;;;;;18.38;65.45;102242.06;4977553;28;96559;-35
2022/07/22 07:12:18;;;;;;;0.40;0.32;;;;;;;18.38;65.76;102231.06;4977084;28;96877;-35
2022/07/22 07:14:43;;;;;;;2.75;0.70;;;;;;;18.38;65.84;102231.06;4977001;28;99502;-35
2022/07/22 07:17:09;;;;;;;0.57;0.50;;;;;;;18.44;65.48;102241.59;4977170;28;98761;-35
2022/07/22 07:19:34;;;;;;;1.13;0.50;;;;;;;18.45;65.21;102235.13;4977048;28;96756;-35
2022/07/22 07:21:59;;;;;;;0.80;0.50;;;;;;;18.54;64.83;102239.91;4976439;28;108720;-35
2022/07/22 07:24:25;;;;;;;3.25;0.57;;;;;;;18.66;65.17;102228.06;4976277;28;103771;-35
2022/07/22 07:26:50;;;;;;;4.75;1.00;;;;;;;18.81;64.69;102237.06;4976756;28;99129;-35
2022/07/22 07:29:16;;;;;;;2.85;0.60;;;;;;;18.89;64.27;102237.34;4976991;28;96706;-35
2022/07/22 07:31:41;;;;;;;0.40;0.40;;;;;;;18.85;64.30;102223.97;4976982;28;96837;-35
2022/07/22 07:34:07;;;;;;;1.85;0.65;;;;;;;18.91;64.45;102220.78;4976530;28;100773;-35
2022/07/22 07:36:32;;;;;;;0.68;0.43;;;;;;;18.87;64.08;102228.34;4976581;28;97922;-35
2022/07/22 07:38:57;;;;;;;4.45;0.90;;;;;;;18.89;64.50;102229.09;4977114;28;96569;-35
2022/07/22 07:41:23;;;;;;;4.85;1.10;;;;;;;18.87;64.72;102225.59;4977126;28;96818;-35
2022/07/22 07:43:48;;;;;;;2.92;0.55;;;;;;;18.89;64.80;102223.63;4976410;28;99222;-35
2022/07/22 07:46:13;;;;;;;2.63;0.82;;;;;;;18.92;64.81;102228.00;4976576;28;97316;-35
2022/07/22 07:48:39;;;;;;;7.07;0.80;;;;;;;18.92;64.53;102216.16;4976387;28;96803;-35
2022/07/22 07:51:05;;;;;;;1.90;0.60;;;;;;;18.95;63.96;102216.81;4976514;28;96887;-35
2022/07/22 07:53:30;;;;;;;2.03;0.70;;;;;;;19.01;64.04;102216.34;4974337;28;100704;-35
2022/07/22 07:55:55;;;;;;;2.20;0.68;;;;;;;19.05;64.09;102214.25;4976211;28;97610;-35
2022/07/22 07:58:21;;;;;;;2.25;0.52;;;;;;;19.08;63.21;102216.75;4976409;28;96667;-35
2022/07/22 08:00:46;;;;;;;1.02;0.50;;;;;;;19.14;63.74;102216.28;4976656;28;96786;-35
2022/07/22 08:03:12;;;;;;;2.33;0.75;;;;;;;19.16;63.39;102210.66;4976089;28;99824;-35
2022/07/22 08:05:38;;;;;;;3.50;1.00;;;;;;;19.18;63.06;102211.44;4976145;28;97973;-35
2022/07/22 08:08:06;;;;;;;0.93;0.70;;;;;;;19.17;63.46;102227.03;4975093;28;96627;-35
2022/07/22 08:10:31;;;;;;;1.42;0.77;;;;;;;19.13;63.15;102219.16;4975028;28;97138;-35
2022/07/22 08:12:58;;;;;;;3.53;1.10;;;;;;;19.15;63.29;102207.06;4975433;28;99463;-35
2022/07/22 08:15:24;;;;;;;3.80;1.02;;;;;;;19.17;63.69;102213.31;4974532;28;100948;-35
2022/07/22 08:17:49;;;;;;;1.52;0.80;;;;;;;19.20;63.56;102206.69;4974963;28;96556;-35
2022/07/22 08:20:15;;;;;;;2.13;0.93;;;;;;;19.23;63.14;102207.31;4975956;28;96837;-35
2022/07/22 08:22:40;;;;;;;3.80;1.38;;;;;;;19.20;63.63;102201.19;4975993;28;98016;-35
2022/07/22 08:25:05;;;;;;;3.35;1.00;;;;;;;19.23;63.42;102209.19;4975808;28;101522;-35
2022/07/22 08:27:31;;;;;;;2.17;0.80;;;;;;;19.28;63.26;102210.63;4976052;28;97081;-35
2022/07/22 08:29:57;;;;;;;1.27;1.00;;;;;;;19.34;62.55;102205.66;4976586;28;96811;-35
2022/07/22 08:32:22;;;;;;;3.35;0.98;;;;;;;19.31;62.28;102201.25;4975559;28;99257;-35
2022/07/22 08:34:48;;;;;;;3.85;0.80;;;;;;;19.41;62.49;102201.44;4975665;28;97428;-35
2022/07/22 08:37:13;;;;;;;1.83;0.75;;;;;;;19.47;62.82;102204.59;4975457;28;96538;-35
2022/07/22 08:39:38;;;;;;;1.73;0.90;;;;;;;19.44;62.52;102196.56;4975734;28;96818;-35
2022/07/22 08:42:04;;;;;;;2.83;0.90;;;;;;;19.48;61.93;102206.31;4974257;28;101031;-35
2022/07/22 08:44:31;;;;;;;5.35;1.30;;;;;;;19.41;62.51;102190.44;4975656;28;97805;-35
2022/07/22 08:46:57;;;;;;;2.42;0.93;;;;;;;19.49;62.92;102199.81;4974526;28;96729;-35
2022/07/22 08:49:23;;;;;;;1.48;0.93;;;;;;;19.52;62.88;102196.84;4974460;28;96841;-35
2022/07/22 08:51:48;;;;;;;4.30;0.80;;;;;;;19.50;62.57;102189.72;4975390;28;99267;-35
2022/07/22 08:54:13;;;;;;;2.00;0.93;;;;;;;19.43;62.68;102189.31;4975758;28;97491;-35
2022/07/22 08:56:39;;;;;;;3.88;0.98;;;;;;;19.49;62.74;102201.69;4975243;28;96553;-35
2022/07/22 08:59:04;;;;;;;2.28;1.20;;;;;;;19.58;62.23;102203.72;4975930;28;96832;-35
2022/07/22 09:01:30;;;;;;;3.13;0.93;;;;;;;19.56;61.91;102196.59;4974792;28;99417;-35
2022/07/22 09:03:56;;;;;;;1.77;0.93;;;;;;;19.65;62.02;102204.13;4973833;28;101338;-35
2022/07/22 09:06:33;;;;;;;2.97;1.17;;;;;;;19.63;61.73;102200.63;4973227;28;96601;-35
2022/07/22 09:09:04;;;;;;;3.90;1.10;;;;;;;19.72;61.71;102191.69;4975865;28;96743;-35
2022/07/22 09:11:30;;;;;;;6.28;1.17;;;;;;;19.81;61.07;102190.97;4973711;28;100563;-35
2022/07/22 09:13:58;;;;;;;2.47;0.80;;;;;;;19.92;60.81;102192.84;4973754;28;101758;-35
2022/07/22 09:16:47;;;;;;;1.80;0.88;;;;;;;20.05;59.94;102199.13;4973922;28;96703;-35
2022/07/22 09:19:13;;;;;;;4.68;1.15;;;;;;;20.08;60.60;102198.00;4974485;28;97068;-35
2022/07/22 09:21:43;;;;;;;3.45;1.00;;;;;;;20.11;59.96;102195.00;4973699;28;101033;-35
2022/07/22 09:24:26;;;;;;;6.13;1.10;;;;;;;20.07;60.24;102182.47;4973626;28;101054;-35
2022/07/22 09:26:55;;;;;;;4.00;0.90;;;;;;;20.09;60.33;102199.75;4974946;28;96782;-35
2022/07/22 09:29:20;;;;;;;4.53;1.23;;;;;;;20.04;60.70;102194.59;4973766;28;96863;-35
2022/07/22 09:31:50;;;;;;;2.25;1.15;;;;;;;19.94;60.31;102194.47;4975140;28;97894;-35
2022/07/22 09:34:30;;;;;;;2.33;1.08;;;;;;;19.86;60.08;102190.59;4974993;28;97340;-35
2022/07/22 09:36:57;;;;;;;5.85;1.05;;;;;;;19.75;60.90;102182.31;4975448;28;96480;-35
2022/07/22 09:39:31;;;;;;;2.83;1.08;;;;;;;19.82;60.31;102206.44;4973486;28;96929;-35
2022/07/22 09:42:05;;;;;;;2.55;0.95;;;;;;;19.80;60.34;102196.56;4973328;28;101079;-35
2022/07/22 09:44:31;;;;;;;1.10;0.75;;;;;;;19.80;61.13;102196.56;4973882;28;100784;-35
2022/07/22 09:46:56;;;;;;;3.47;1.17;;;;;;;19.84;60.82;102192.59;4975422;28;96578;-35
2022/07/22 09:49:37;;;;;;;3.85;1.02;;;;;;;19.98;60.11;102205.25;4975153;28;96540;-35
2022/07/22 09:52:03;;;;;;;4.40;1.25;;;;;;;20.24;60.00;102215.03;4974304;28;97984;-35
2022/07/22 09:54:29;;;;;;;2.88;1.40;;;;;;;20.62;58.65;102197.28;4973206;28;100940;-35
2022/07/22 09:56:55;;;;;;;3.03;1.60;;;;;;;21.15;57.85;102202.06;4973258;28;96778;-35
2022/07/22 09:59:21;;;;;;;7.18;1.85;;;;;;;21.49;57.10;102188.16;4974868;28;96861;-35
2022/07/22 10:01:48;;;;;;;2.85;1.35;;;;;;;21.79;56.19;102201.16;4974803;28;97871;-35
2022/07/22 10:04:14;;;;;;;3.55;1.48;;;;;;;22.14;56.32;102199.91;4972950;28;100851;-35
2022/07/22 10:06:42;;;;;;;7.05;1.70;;;;;;;22.46;54.79;102197.91;4973511;28;96654;-35
2022/07/22 10:09:08;;;;;;;2.67;1.35;;;;;;;22.47;53.92;102188.59;4973877;28;96983;-35
2022/07/22 10:11:36;;;;;;;3.83;1.52;;;;;;;22.41;53.50;102191.94;4973160;28;100835;-35
2022/07/22 10:14:02;;;;;;;4.15;1.50;;;;;;;22.14;54.89;102195.25;4972945;28;100743;-35
2022/07/22 10:16:28;;;;;;;3.95;1.27;;;;;;;22.13;55.72;102192.66;4972995;28;96657;-35
2022/07/22 10:18:54;;;;;;;5.88;1.40;;;;;;;22.18;54.88;102201.38;4976552;28;96890;-35
2022/07/22 10:21:31;;;;;;;3.95;1.23;;;;;;;22.16;53.99;102197.88;4977805;28;98144;-35
2022/07/22 10:24:17;;;;;;;7.68;1.65;;;;;;;22.25;54.51;102195.19;4976503;28;100897;-35
2022/07/22 10:26:55;;;;;;;4.65;1.52;;;;;;;22.15;53.29;102197.00;4978204;28;96610;-35
2022/07/22 10:29:31;;;;;;;5.40;1.60;;;;;;;22.10;54.75;102210.34;4976441;28;96813;-35
2022/07/22 10:32:15;;;;;;;5.38;1.48;;;;;;;21.96;54.54;102208.81;4976305;28;99118;-35
2022/07/22 10:35:01;;;;;;;3.05;1.42;;;;;;;21.75;55.28;102207.94;4977872;28;99624;-35
2022/07/22 10:37:37;;;;;;;6.05;1.50;;;;;;;21.99;53.62;102203.00;4978041;28;96639;-35
2022/07/22 10:40:50;;;;;;;5.45;1.52;;;;;;;22.44;54.18;102197.19;4977547;28;96831;-35
2022/07/22 10:43:18;;;;;;;5.22;1.42;;;;;;;22.89;53.46;102179.28;4994650;28;98041;-35
2022/07/22 10:46:05;;;;;;;2.90;1.30;;;;;;;23.04;52.45;102177.00;4979147;28;99664;-35
2022/07/22 10:48:36;;;;;;;6.05;1.38;;;;;;;22.97;52.42;102187.72;4977871;28;96650;-35
2022/07/22 10:51:14;;;;;;;4.53;1.50;;;;;;;22.79;51.73;102189.47;4977999;28;96844;-35
2022/07/22 10:53:55;;;;;;;2.90;1.40;;;;;;;22.58;51.37;102197.81;4975964;28;100812;-35
2022/07/22 10:56:26;;;;;;;3.40;1.70;;;;;;;22.40;51.97;102184.66;4977043;28;98698;-35
2022/07/22 10:58:58;;;;;;;2.40;1.33;;;;;;;22.24;53.84;102157.59;4976044;28;96899;-35
2022/07/22 11:01:29;;;;;;;5.50;1.55;;;;;;;22.04;53.12;102145.53;4976767;28;96834;-35
2022/07/22 11:04:06;;;;;;;3.95;1.27;;;;;;;21.90;54.62;102153.28;4975450;28;101203;-35
2022/07/22 11:06:31;;;;;;;5.65;1.30;;;;;;;22.04;52.39;102156.56;4975769;28;100871;-35
2022/07/22 11:09:00;;;;;;;4.43;1.48;;;;;;;22.56;52.02;102147.38;4976619;28;96760;-36
2022/07/22 11:11:38;;;;;;;4.93;1.40;;;;;;;22.96;50.37;102150.06;4976131;28;96896;-35
2022/07/22 11:14:03;;;;;;;5.68;1.70;;;;;;;23.25;50.59;102152.88;4975513;28;100713;-35
2022/07/22 11:16:29;;;;;;;2.38;1.35;;;;;;;23.57;50.00;102162.72;4979153;28;97260;-35
2022/07/22 11:18:58;;;;;;;7.78;1.55;;;;;;;23.36;50.47;102159.25;4975774;28;96610;-36
2022/07/22 11:21:27;;;;;;;9.02;1.70;;;;;;;23.40;50.21;102158.81;4976332;28;96942;-35
2022/07/22 11:23:55;;;;;;;3.45;1.98;;;;;;;23.30;50.82;102158.81;4975547;28;100720;-35